sensor_id;sensor_type;location;lat;lon;timestamp;pressure;altitude;pressure_sealevel;temperature;humidity
4449;BME280;2237;51.870;6.160;2022-08-04T00:02:03;101132.94;;;26.72;50.04
4449;BME280;2237;51.870;6.160;2022-08-04T00:04:48;101134.31;;;26.66;50.15
4449;BME280;2237;51.870;6.160;2022-08-04T00:10:27;101141.41;;;26.56;50.67
4449;BME280;2237;51.870;6.160;2022-08-04T00:12:54;101136.00;;;26.47;50.84
4449;BME280;2237;51.870;6.160;2022-08-04T00:15:23;101135.91;;;26.37;51.50
4449;BME280;2237;51.870;6.160;2022-08-04T00:18:04;101133.59;;;26.32;51.39
4449;BME280;2237;51.870;6.160;2022-08-04T00:20:37;101134.34;;;26.34;51.40
4449;BME280;2237;51.870;6.160;2022-08-04T00:23:07;101136.16;;;26.34;51.38
4449;BME280;2237;51.870;6.160;2022-08-04T00:25:37;101142.38;;;26.34;51.52
4449;BME280;2237;51.870;6.160;2022-08-04T00:28:05;101134.25;;;26.25;51.80
4449;BME280;2237;51.870;6.160;2022-08-04T00:30:32;101129.16;;;26.22;51.75
4449;BME280;2237;51.870;6.160;2022-08-04T00:32:59;101129.31;;;26.20;51.67
4449;BME280;2237;51.870;6.160;2022-08-04T00:35:27;101126.63;;;26.20;51.73
4449;BME280;2237;51.870;6.160;2022-08-04T00:37:54;101126.63;;;26.20;51.33
4449;BME280;2237;51.870;6.160;2022-08-04T00:43:23;101119.25;;;26.02;52.01
4449;BME280;2237;51.870;6.160;2022-08-04T00:46:25;101118.66;;;25.98;52.37
4449;BME280;2237;51.870;6.160;2022-08-04T00:49:17;101119.75;;;25.96;52.52
4449;BME280;2237;51.870;6.160;2022-08-04T00:55:28;101116.25;;;25.84;52.66
4449;BME280;2237;51.870;6.160;2022-08-04T00:58:00;101122.09;;;25.78;53.35
4449;BME280;2237;51.870;6.160;2022-08-04T01:00:36;101122.59;;;25.72;53.68
4449;BME280;2237;51.870;6.160;2022-08-04T01:03:13;101116.75;;;25.78;53.32
4449;BME280;2237;51.870;6.160;2022-08-04T01:08:48;101104.66;;;25.74;53.68
4449;BME280;2237;51.870;6.160;2022-08-04T01:11:39;101109.50;;;25.58;54.07
4449;BME280;2237;51.870;6.160;2022-08-04T01:22:26;101094.13;;;25.39;55.22
4449;BME280;2237;51.870;6.160;2022-08-04T01:30:32;101090.59;;;25.39;55.06
4449;BME280;2237;51.870;6.160;2022-08-04T01:33:04;101091.31;;;25.41;55.08
4449;BME280;2237;51.870;6.160;2022-08-04T01:35:44;101093.75;;;25.33;55.68
4449;BME280;2237;51.870;6.160;2022-08-04T01:38:29;101084.44;;;25.27;55.91
4449;BME280;2237;51.870;6.160;2022-08-04T01:41:02;101083.44;;;25.28;55.47
4449;BME280;2237;51.870;6.160;2022-08-04T01:43:30;101081.00;;;25.25;55.47
4449;BME280;2237;51.870;6.160;2022-08-04T01:46:00;101077.03;;;25.19;56.06
4449;BME280;2237;51.870;6.160;2022-08-04T01:48:27;101074.25;;;25.21;55.48
4449;BME280;2237;51.870;6.160;2022-08-04T01:51:02;101078.88;;;25.19;55.85
4449;BME280;2237;51.870;6.160;2022-08-04T01:53:32;101074.50;;;25.18;55.59
4449;BME280;2237;51.870;6.160;2022-08-04T01:56:00;101082.00;;;25.13;55.88
4449;BME280;2237;51.870;6.160;2022-08-04T01:58:29;101077.63;;;25.12;55.96
4449;BME280;2237;51.870;6.160;2022-08-04T02:01:01;101077.50;;;25.13;55.54
4449;BME280;2237;51.870;6.160;2022-08-04T02:03:35;101079.09;;;25.16;55.49
4449;BME280;2237;51.870;6.160;2022-08-04T02:11:20;101071.94;;;24.94;56.48
4449;BME280;2237;51.870;6.160;2022-08-04T02:14:01;101074.34;;;24.97;56.39
4449;BME280;2237;51.870;6.160;2022-08-04T02:16:37;101064.31;;;25.01;56.16
4449;BME280;2237;51.870;6.160;2022-08-04T02:19:31;101055.09;;;24.94;56.17
4449;BME280;2237;51.870;6.160;2022-08-04T02:22:08;101057.41;;;24.98;56.20
4449;BME280;2237;51.870;6.160;2022-08-04T02:24:43;101060.78;;;25.00;56.09
4449;BME280;2237;51.870;6.160;2022-08-04T02:27:12;101053.75;;;24.99;55.70
4449;BME280;2237;51.870;6.160;2022-08-04T02:30:06;101051.56;;;24.93;56.32
4449;BME280;2237;51.870;6.160;2022-08-04T02:32:35;101045.16;;;24.85;56.13
4449;BME280;2237;51.870;6.160;2022-08-04T02:35:05;101048.56;;;24.87;56.25
4449;BME280;2237;51.870;6.160;2022-08-04T02:37:33;101041.53;;;24.86;56.11
4449;BME280;2237;51.870;6.160;2022-08-04T02:40:04;101034.72;;;24.82;56.06
4449;BME280;2237;51.870;6.160;2022-08-04T02:42:32;101043.34;;;24.85;55.76
4449;BME280;2237;51.870;6.160;2022-08-04T02:44:59;101036.44;;;24.83;55.75
4449;BME280;2237;51.870;6.160;2022-08-04T02:47:27;101041.13;;;24.79;55.90
4449;BME280;2237;51.870;6.160;2022-08-04T02:50:17;101033.97;;;24.68;56.14
4449;BME280;2237;51.870;6.160;2022-08-04T02:52:56;101030.69;;;24.65;56.53
4449;BME280;2237;51.870;6.160;2022-08-04T02:55:24;101025.38;;;24.65;56.47
4449;BME280;2237;51.870;6.160;2022-08-04T02:57:53;101026.69;;;24.70;56.14
4449;BME280;2237;51.870;6.160;2022-08-04T03:00:20;101025.25;;;24.66;56.58
4449;BME280;2237;51.870;6.160;2022-08-04T03:03:28;101014.38;;;24.69;56.50
4449;BME280;2237;51.870;6.160;2022-08-04T03:06:03;101025.03;;;24.69;56.07
4449;BME280;2237;51.870;6.160;2022-08-04T03:20:47;101021.59;;;24.67;56.21
4449;BME280;2237;51.870;6.160;2022-08-04T03:34:54;101019.56;;;24.60;56.73
4449;BME280;2237;51.870;6.160;2022-08-04T03:46:47;101014.00;;;24.63;56.43
4449;BME280;2237;51.870;6.160;2022-08-04T03:49:57;100998.00;;;24.63;56.36
4449;BME280;2237;51.870;6.160;2022-08-04T04:01:15;101004.06;;;24.54;56.92
4449;BME280;2237;51.870;6.160;2022-08-04T04:12:50;100995.22;;;24.53;56.99
4449;BME280;2237;51.870;6.160;2022-08-04T04:18:32;100997.00;;;24.53;56.77
4449;BME280;2237;51.870;6.160;2022-08-04T04:26:56;100993.78;;;24.60;56.70
4449;BME280;2237;51.870;6.160;2022-08-04T04:32:04;101001.53;;;24.63;56.87
4449;BME280;2237;51.870;6.160;2022-08-04T04:34:46;100997.63;;;24.67;56.84
4449;BME280;2237;51.870;6.160;2022-08-04T04:37:25;100994.97;;;24.67;56.70
4449;BME280;2237;51.870;6.160;2022-08-04T04:45:39;100993.16;;;24.79;56.41
4449;BME280;2237;51.870;6.160;2022-08-04T04:56:16;100995.38;;;24.85;56.67
4449;BME280;2237;51.870;6.160;2022-08-04T04:58:50;100997.78;;;24.77;56.84
4449;BME280;2237;51.870;6.160;2022-08-04T05:04:31;100991.88;;;24.85;56.62
4449;BME280;2237;51.870;6.160;2022-08-04T05:07:16;100992.22;;;24.91;56.61
4449;BME280;2237;51.870;6.160;2022-08-04T05:15:41;101003.63;;;25.04;56.03
4449;BME280;2237;51.870;6.160;2022-08-04T05:18:13;101002.03;;;25.13;55.80
4449;BME280;2237;51.870;6.160;2022-08-04T05:20:43;101001.41;;;25.20;55.77
4449;BME280;2237;51.870;6.160;2022-08-04T05:23:20;100991.34;;;25.24;55.75
4449;BME280;2237;51.870;6.160;2022-08-04T05:25:53;100991.97;;;25.27;55.85
4449;BME280;2237;51.870;6.160;2022-08-04T05:28:33;100992.44;;;25.33;56.10
4449;BME280;2237;51.870;6.160;2022-08-04T05:31:09;100994.34;;;25.42;55.49
4449;BME280;2237;51.870;6.160;2022-08-04T05:33:48;100994.47;;;25.51;55.25
4449;BME280;2237;51.870;6.160;2022-08-04T05:36:21;100994.56;;;25.61;55.22
4449;BME280;2237;51.870;6.160;2022-08-04T05:39:10;101001.31;;;25.76;54.46
4449;BME280;2237;51.870;6.160;2022-08-04T05:41:39;101016.06;;;25.91;53.95
4449;BME280;2237;51.870;6.160;2022-08-04T05:44:12;101030.38;;;25.90;54.02
4449;BME280;2237;51.870;6.160;2022-08-04T05:46:40;101039.78;;;25.73;57.26
4449;BME280;2237;51.870;6.160;2022-08-04T05:49:07;101041.63;;;25.62;57.54
4449;BME280;2237;51.870;6.160;2022-08-04T05:51:38;101038.78;;;25.74;56.90
4449;BME280;2237;51.870;6.160;2022-08-04T05:54:05;101040.13;;;25.80;56.65
4449;BME280;2237;51.870;6.160;2022-08-04T05:56:34;101036.59;;;25.79;56.61
4449;BME280;2237;51.870;6.160;2022-08-04T05:59:02;101029.56;;;25.78;56.00
4449;BME280;2237;51.870;6.160;2022-08-04T06:01:29;101043.41;;;25.72;56.11
4449;BME280;2237;51.870;6.160;2022-08-04T06:04:00;101051.63;;;25.80;55.95
4449;BME280;2237;51.870;6.160;2022-08-04T06:06:32;101047.19;;;26.02;55.51
4449;BME280;2237;51.870;6.160;2022-08-04T06:08:59;101044.97;;;26.18;54.73
4449;BME280;2237;51.870;6.160;2022-08-04T06:11:28;101057.59;;;26.36;54.56
4449;BME280;2237;51.870;6.160;2022-08-04T06:14:04;101044.06;;;26.49;53.86
4449;BME280;2237;51.870;6.160;2022-08-04T06:16:40;101050.44;;;26.58;53.94
4449;BME280;2237;51.870;6.160;2022-08-04T06:19:16;101047.63;;;26.59;53.70
4449;BME280;2237;51.870;6.160;2022-08-04T06:22:05;101051.69;;;26.54;53.79
4449;BME280;2237;51.870;6.160;2022-08-04T06:24:35;101056.38;;;26.41;53.89
4449;BME280;2237;51.870;6.160;2022-08-04T06:27:03;101052.97;;;26.38;53.99
4449;BME280;2237;51.870;6.160;2022-08-04T06:29:31;101052.00;;;26.39;53.80
4449;BME280;2237;51.870;6.160;2022-08-04T06:32:04;101052.19;;;26.48;53.72
4449;BME280;2237;51.870;6.160;2022-08-04T06:35:00;101046.78;;;26.59;53.72
4449;BME280;2237;51.870;6.160;2022-08-04T06:37:27;101043.03;;;26.61;53.86
4449;BME280;2237;51.870;6.160;2022-08-04T06:40:11;101041.78;;;26.86;52.88
4449;BME280;2237;51.870;6.160;2022-08-04T06:42:57;101055.19;;;26.96;52.66
4449;BME280;2237;51.870;6.160;2022-08-04T06:45:25;101048.19;;;27.04;52.46
4449;BME280;2237;51.870;6.160;2022-08-04T06:47:53;101046.16;;;26.97;52.19
4449;BME280;2237;51.870;6.160;2022-08-04T06:50:20;101057.00;;;26.95;52.49
4449;BME280;2237;51.870;6.160;2022-08-04T06:53:08;101055.53;;;26.81;52.87
4449;BME280;2237;51.870;6.160;2022-08-04T06:55:34;101046.59;;;26.92;52.87
4449;BME280;2237;51.870;6.160;2022-08-04T06:58:02;101037.94;;;27.09;52.33
4449;BME280;2237;51.870;6.160;2022-08-04T07:00:30;101032.91;;;27.16;52.33
4449;BME280;2237;51.870;6.160;2022-08-04T07:02:59;101042.59;;;27.17;51.44
4449;BME280;2237;51.870;6.160;2022-08-04T07:05:26;101036.31;;;27.27;51.39
4449;BME280;2237;51.870;6.160;2022-08-04T07:07:52;101043.81;;;27.33;51.08
4449;BME280;2237;51.870;6.160;2022-08-04T07:10:27;101030.47;;;27.43;50.77
4449;BME280;2237;51.870;6.160;2022-08-04T07:12:58;101045.41;;;27.45;51.25
4449;BME280;2237;51.870;6.160;2022-08-04T07:15:25;101041.47;;;27.49;50.86
4449;BME280;2237;51.870;6.160;2022-08-04T07:17:53;101040.88;;;27.46;50.48
4449;BME280;2237;51.870;6.160;2022-08-04T07:20:22;101042.31;;;27.50;50.49
4449;BME280;2237;51.870;6.160;2022-08-04T07:23:04;101044.56;;;27.55;50.77
4449;BME280;2237;51.870;6.160;2022-08-04T07:25:33;101051.03;;;27.42;50.89
4449;BME280;2237;51.870;6.160;2022-08-04T07:28:22;101047.19;;;27.35;51.42
4449;BME280;2237;51.870;6.160;2022-08-04T07:30:49;101052.72;;;27.43;50.83
4449;BME280;2237;51.870;6.160;2022-08-04T07:33:16;101058.38;;;27.50;50.43
4449;BME280;2237;51.870;6.160;2022-08-04T07:35:51;101053.75;;;27.62;50.26
4449;BME280;2237;51.870;6.160;2022-08-04T07:38:37;101056.88;;;27.76;49.31
4449;BME280;2237;51.870;6.160;2022-08-04T07:41:19;101065.78;;;27.96;48.68
4449;BME280;2237;51.870;6.160;2022-08-04T07:44:03;101062.97;;;28.07;48.19
4449;BME280;2237;51.870;6.160;2022-08-04T07:46:30;101064.25;;;28.13;47.35
4449;BME280;2237;51.870;6.160;2022-08-04T07:48:59;101067.22;;;28.19;47.61
4449;BME280;2237;51.870;6.160;2022-08-04T07:51:26;101060.84;;;28.30;47.25
4449;BME280;2237;51.870;6.160;2022-08-04T07:53:55;101064.66;;;28.46;47.30
4449;BME280;2237;51.870;6.160;2022-08-04T07:56:22;101061.66;;;28.59;46.26
4449;BME280;2237;51.870;6.160;2022-08-04T07:58:48;101061.41;;;28.72;46.25
4449;BME280;2237;51.870;6.160;2022-08-04T08:01:16;101062.53;;;28.79;45.26
4449;BME280;2237;51.870;6.160;2022-08-04T08:03:42;101059.09;;;28.86;45.01
4449;BME280;2237;51.870;6.160;2022-08-04T08:06:09;101063.72;;;28.94;45.12
4449;BME280;2237;51.870;6.160;2022-08-04T08:08:57;101066.69;;;28.91;44.36
4449;BME280;2237;51.870;6.160;2022-08-04T08:11:23;101070.50;;;28.88;44.41
4449;BME280;2237;51.870;6.160;2022-08-04T08:14:10;101066.03;;;28.79;44.92
4449;BME280;2237;51.870;6.160;2022-08-04T08:16:37;101061.22;;;28.83;45.12
4449;BME280;2237;51.870;6.160;2022-08-04T08:19:04;101063.09;;;28.73;44.89
4449;BME280;2237;51.870;6.160;2022-08-04T08:21:31;101058.44;;;28.55;45.23
4449;BME280;2237;51.870;6.160;2022-08-04T08:23:58;101057.31;;;28.58;45.74
4449;BME280;2237;51.870;6.160;2022-08-04T08:26:25;101060.84;;;28.58;45.82
4449;BME280;2237;51.870;6.160;2022-08-04T08:28:53;101059.03;;;28.49;46.27
4449;BME280;2237;51.870;6.160;2022-08-04T08:31:20;101056.91;;;28.43;45.78
4449;BME280;2237;51.870;6.160;2022-08-04T08:34:07;101057.63;;;28.26;46.71
4449;BME280;2237;51.870;6.160;2022-08-04T08:36:37;101061.00;;;28.28;46.70
4449;BME280;2237;51.870;6.160;2022-08-04T08:39:14;101063.69;;;28.28;46.45
4449;BME280;2237;51.870;6.160;2022-08-04T08:50:02;101055.31;;;28.60;44.83
4449;BME280;2237;51.870;6.160;2022-08-04T08:52:58;101058.84;;;28.60;44.94
4449;BME280;2237;51.870;6.160;2022-08-04T09:01:45;101068.50;;;29.00;44.18
4449;BME280;2237;51.870;6.160;2022-08-04T09:13:05;101076.50;;;30.01;42.28
4449;BME280;2237;51.870;6.160;2022-08-04T09:15:38;101072.53;;;29.95;42.10
4449;BME280;2237;51.870;6.160;2022-08-04T09:18:17;101070.81;;;30.04;42.25
4449;BME280;2237;51.870;6.160;2022-08-04T09:21:17;101076.25;;;30.12;41.71
4449;BME280;2237;51.870;6.160;2022-08-04T09:27:38;101076.38;;;29.93;42.21
4449;BME280;2237;51.870;6.160;2022-08-04T09:30:07;101077.00;;;30.22;41.88
4449;BME280;2237;51.870;6.160;2022-08-04T09:32:43;101077.00;;;30.57;41.62
4449;BME280;2237;51.870;6.160;2022-08-04T09:35:45;101078.97;;;30.73;41.07
4449;BME280;2237;51.870;6.160;2022-08-04T09:38:21;101075.09;;;30.32;41.18
4449;BME280;2237;51.870;6.160;2022-08-04T09:41:02;101070.88;;;30.30;41.44
4449;BME280;2237;51.870;6.160;2022-08-04T09:47:38;101075.88;;;30.68;41.40
4449;BME280;2237;51.870;6.160;2022-08-04T09:50:32;101077.00;;;30.83;40.74
4449;BME280;2237;51.870;6.160;2022-08-04T09:55:47;101083.56;;;31.40;39.30
4449;BME280;2237;51.870;6.160;2022-08-04T09:58:53;101080.69;;;31.42;39.02
4449;BME280;2237;51.870;6.160;2022-08-04T10:01:24;101079.94;;;31.57;38.57
4449;BME280;2237;51.870;6.160;2022-08-04T10:04:00;101085.16;;;31.67;38.42
4449;BME280;2237;51.870;6.160;2022-08-04T10:14:28;101088.69;;;32.58;37.57
4449;BME280;2237;51.870;6.160;2022-08-04T10:17:20;101095.25;;;32.47;37.66
4449;BME280;2237;51.870;6.160;2022-08-04T10:22:40;101093.91;;;32.27;38.25
4449;BME280;2237;51.870;6.160;2022-08-04T10:28:19;101101.13;;;32.10;39.50
4449;BME280;2237;51.870;6.160;2022-08-04T10:30:50;101113.81;;;31.76;40.18
4449;BME280;2237;51.870;6.160;2022-08-04T10:34:13;101126.63;;;31.40;40.04
4449;BME280;2237;51.870;6.160;2022-08-04T10:36:40;101122.41;;;31.12;40.81
4449;BME280;2237;51.870;6.160;2022-08-04T10:39:13;101125.06;;;31.04;41.82
4449;BME280;2237;51.870;6.160;2022-08-04T10:42:26;101120.81;;;30.75;42.03
4449;BME280;2237;51.870;6.160;2022-08-04T10:47:32;101115.41;;;30.50;44.43
4449;BME280;2237;51.870;6.160;2022-08-04T10:50:02;101131.97;;;30.27;45.09
4449;BME280;2237;51.870;6.160;2022-08-04T10:52:37;101156.78;;;30.04;45.42
4449;BME280;2237;51.870;6.160;2022-08-04T10:57:41;101181.06;;;29.38;47.13
4449;BME280;2237;51.870;6.160;2022-08-04T11:00:12;101189.34;;;29.08;48.38
4449;BME280;2237;51.870;6.160;2022-08-04T11:05:34;101238.13;;;28.44;49.28
4449;BME280;2237;51.870;6.160;2022-08-04T11:08:26;101236.16;;;28.37;53.13
4449;BME280;2237;51.870;6.160;2022-08-04T11:13:24;101273.84;;;28.05;54.19
4449;BME280;2237;51.870;6.160;2022-08-04T11:15:56;101270.34;;;27.84;55.13
4449;BME280;2237;51.870;6.160;2022-08-04T11:18:35;101276.47;;;27.44;55.72
4449;BME280;2237;51.870;6.160;2022-08-04T11:21:13;101259.94;;;27.19;57.49
4449;BME280;2237;51.870;6.160;2022-08-04T11:23:45;101260.53;;;27.02;59.19
4449;BME280;2237;51.870;6.160;2022-08-04T11:26:20;101261.03;;;26.96;60.56
4449;BME280;2237;51.870;6.160;2022-08-04T11:29:10;101250.19;;;26.97;61.41
4449;BME280;2237;51.870;6.160;2022-08-04T11:31:42;101245.91;;;27.06;61.47
4449;BME280;2237;51.870;6.160;2022-08-04T11:34:19;101241.22;;;27.19;62.60
4449;BME280;2237;51.870;6.160;2022-08-04T11:39:59;101211.03;;;27.88;61.03
4449;BME280;2237;51.870;6.160;2022-08-04T11:42:37;101201.00;;;28.11;59.83
4449;BME280;2237;51.870;6.160;2022-08-04T11:45:14;101195.56;;;28.41;59.08
4449;BME280;2237;51.870;6.160;2022-08-04T11:47:50;101198.53;;;28.77;58.43
4449;BME280;2237;51.870;6.160;2022-08-04T11:50:32;101180.38;;;29.17;56.55
4449;BME280;2237;51.870;6.160;2022-08-04T11:53:01;101180.25;;;29.65;55.75
4449;BME280;2237;51.870;6.160;2022-08-04T11:55:29;101184.53;;;29.95;55.14
4449;BME280;2237;51.870;6.160;2022-08-04T11:57:57;101189.41;;;30.09;53.91
4449;BME280;2237;51.870;6.160;2022-08-04T12:00:27;101206.91;;;29.86;53.91
4449;BME280;2237;51.870;6.160;2022-08-04T12:03:32;101207.34;;;29.35;55.60
4449;BME280;2237;51.870;6.160;2022-08-04T12:08:39;101206.41;;;28.49;59.73
4449;BME280;2237;51.870;6.160;2022-08-04T12:11:23;101206.41;;;28.40;60.90
4449;BME280;2237;51.870;6.160;2022-08-04T12:19:44;101201.34;;;27.97;60.90
4449;BME280;2237;51.870;6.160;2022-08-04T12:22:36;101187.81;;;27.89;61.71
4449;BME280;2237;51.870;6.160;2022-08-04T12:25:09;101212.56;;;28.12;61.61
4449;BME280;2237;51.870;6.160;2022-08-04T12:30:06;101209.59;;;28.24;62.10
4449;BME280;2237;51.870;6.160;2022-08-04T12:33:04;101190.50;;;28.67;62.48
4449;BME280;2237;51.870;6.160;2022-08-04T12:35:38;101201.31;;;29.23;59.64
4449;BME280;2237;51.870;6.160;2022-08-04T12:38:28;101197.72;;;29.88;56.58
4449;BME280;2237;51.870;6.160;2022-08-04T12:40:59;101194.44;;;30.39;56.15
4449;BME280;2237;51.870;6.160;2022-08-04T12:43:37;101187.88;;;30.77;54.26
4449;BME280;2237;51.870;6.160;2022-08-04T12:46:16;101187.84;;;31.12;52.61
4449;BME280;2237;51.870;6.160;2022-08-04T12:48:45;101182.19;;;31.23;52.01
4449;BME280;2237;51.870;6.160;2022-08-04T12:51:12;101183.09;;;31.32;50.28
4449;BME280;2237;51.870;6.160;2022-08-04T12:53:59;101180.00;;;31.19;49.54
4449;BME280;2237;51.870;6.160;2022-08-04T12:56:28;101185.22;;;31.20;49.02
4449;BME280;2237;51.870;6.160;2022-08-04T12:59:08;101191.56;;;31.37;50.01
4449;BME280;2237;51.870;6.160;2022-08-04T13:01:39;101185.94;;;31.48;48.38
4449;BME280;2237;51.870;6.160;2022-08-04T13:04:26;101175.16;;;31.48;48.66
4449;BME280;2237;51.870;6.160;2022-08-04T13:07:08;101176.63;;;31.43;48.38
4449;BME280;2237;51.870;6.160;2022-08-04T13:09:36;101196.25;;;31.35;48.80
4449;BME280;2237;51.870;6.160;2022-08-04T13:12:15;101189.78;;;31.20;48.40
4449;BME280;2237;51.870;6.160;2022-08-04T13:14:43;101192.28;;;30.96;48.75
4449;BME280;2237;51.870;6.160;2022-08-04T13:17:13;101201.22;;;30.96;48.10
4449;BME280;2237;51.870;6.160;2022-08-04T13:19:45;101198.75;;;30.67;48.61
4449;BME280;2237;51.870;6.160;2022-08-04T13:22:28;101195.00;;;30.33;48.84
4449;BME280;2237;51.870;6.160;2022-08-04T13:24:57;101199.66;;;30.13;49.28
4449;BME280;2237;51.870;6.160;2022-08-04T13:27:44;101205.94;;;30.04;49.71
4449;BME280;2237;51.870;6.160;2022-08-04T13:30:18;101204.50;;;30.10;50.35
4449;BME280;2237;51.870;6.160;2022-08-04T13:32:53;101205.28;;;30.20;50.33
4449;BME280;2237;51.870;6.160;2022-08-04T13:35:20;101207.91;;;30.12;49.64
4449;BME280;2237;51.870;6.160;2022-08-04T13:38:13;101226.00;;;30.10;50.10
4449;BME280;2237;51.870;6.160;2022-08-04T13:40:43;101220.88;;;30.16;49.68
4449;BME280;2237;51.870;6.160;2022-08-04T13:43:22;101226.00;;;30.55;48.84
4449;BME280;2237;51.870;6.160;2022-08-04T13:46:14;101224.97;;;30.91;47.98
4449;BME280;2237;51.870;6.160;2022-08-04T13:48:56;101224.91;;;31.18;47.44
4449;BME280;2237;51.870;6.160;2022-08-04T13:52:02;101234.94;;;31.34;46.50
4449;BME280;2237;51.870;6.160;2022-08-04T13:54:40;101229.19;;;31.80;44.35
4449;BME280;2237;51.870;6.160;2022-08-04T13:57:20;101225.09;;;35.03;37.85
4449;BME280;2237;51.870;6.160;2022-08-04T13:59:51;101225.25;;;36.12;34.70
4449;BME280;2237;51.870;6.160;2022-08-04T14:04:54;101236.97;;;42.28;24.33
4449;BME280;2237;51.870;6.160;2022-08-04T14:07:24;101224.00;;;45.65;20.38
4449;BME280;2237;51.870;6.160;2022-08-04T14:09:52;101231.31;;;45.76;20.52
4449;BME280;2237;51.870;6.160;2022-08-04T14:12:29;101230.88;;;45.46;19.72
4449;BME280;2237;51.870;6.160;2022-08-04T14:18:30;101220.38;;;45.43;19.26
4449;BME280;2237;51.870;6.160;2022-08-04T14:21:04;101223.41;;;45.41;18.54
4449;BME280;2237;51.870;6.160;2022-08-04T14:26:30;101198.44;;;50.42;14.94
4449;BME280;2237;51.870;6.160;2022-08-04T14:29:12;101202.06;;;53.24;12.86
4449;BME280;2237;51.870;6.160;2022-08-04T14:32:00;101204.75;;;54.64;11.39
4449;BME280;2237;51.870;6.160;2022-08-04T14:34:29;101203.06;;;55.55;10.29
4449;BME280;2237;51.870;6.160;2022-08-04T14:37:06;101198.59;;;53.32;11.21
4449;BME280;2237;51.870;6.160;2022-08-04T14:39:53;101192.72;;;53.06;11.80
4449;BME280;2237;51.870;6.160;2022-08-04T14:42:45;101196.03;;;52.76;11.87
4449;BME280;2237;51.870;6.160;2022-08-04T14:45:30;101195.28;;;53.16;11.25
4449;BME280;2237;51.870;6.160;2022-08-04T14:47:57;101198.66;;;52.16;12.51
4449;BME280;2237;51.870;6.160;2022-08-04T14:53:06;101203.94;;;52.36;12.57
4449;BME280;2237;51.870;6.160;2022-08-04T14:55:34;101204.47;;;49.41;14.62
4449;BME280;2237;51.870;6.160;2022-08-04T14:58:00;101193.00;;;45.53;18.41
4449;BME280;2237;51.870;6.160;2022-08-04T15:00:48;101180.06;;;44.32;20.23
4449;BME280;2237;51.870;6.160;2022-08-04T15:03:17;101174.31;;;45.17;19.63
4449;BME280;2237;51.870;6.160;2022-08-04T15:05:44;101181.91;;;47.08;17.50
4449;BME280;2237;51.870;6.160;2022-08-04T15:08:31;101185.13;;;51.01;14.46
4449;BME280;2237;51.870;6.160;2022-08-04T15:10:59;101185.41;;;52.45;13.62
4449;BME280;2237;51.870;6.160;2022-08-04T15:13:29;101176.34;;;52.21;13.74
4449;BME280;2237;51.870;6.160;2022-08-04T15:15:58;101179.63;;;52.74;13.10
4449;BME280;2237;51.870;6.160;2022-08-04T15:18:34;101178.34;;;52.99;12.00
4449;BME280;2237;51.870;6.160;2022-08-04T15:21:03;101178.44;;;52.11;13.28
4449;BME280;2237;51.870;6.160;2022-08-04T15:23:29;101183.91;;;51.36;12.67
4449;BME280;2237;51.870;6.160;2022-08-04T15:26:08;101171.13;;;52.52;12.25
4449;BME280;2237;51.870;6.160;2022-08-04T15:28:39;101183.13;;;51.97;12.09
4449;BME280;2237;51.870;6.160;2022-08-04T15:31:06;101185.41;;;52.64;12.33
4449;BME280;2237;51.870;6.160;2022-08-04T15:33:38;101188.75;;;54.11;10.99
4449;BME280;2237;51.870;6.160;2022-08-04T15:36:58;101188.31;;;53.95;11.02
4449;BME280;2237;51.870;6.160;2022-08-04T15:39:10;101187.78;;;54.29;11.41
4449;BME280;2237;51.870;6.160;2022-08-04T15:41:59;101192.50;;;55.04;10.21
4449;BME280;2237;51.870;6.160;2022-08-04T15:45:03;101185.56;;;53.68;10.58
4449;BME280;2237;51.870;6.160;2022-08-04T15:47:34;101181.06;;;53.31;10.83
4449;BME280;2237;51.870;6.160;2022-08-04T15:50:07;101177.78;;;53.79;10.47
4449;BME280;2237;51.870;6.160;2022-08-04T15:53:05;101184.50;;;51.33;12.41
4449;BME280;2237;51.870;6.160;2022-08-04T15:55:42;101180.22;;;48.87;14.67
4449;BME280;2237;51.870;6.160;2022-08-04T15:58:15;101177.38;;;47.91;15.67
4449;BME280;2237;51.870;6.160;2022-08-04T16:08:59;101161.94;;;39.38;24.06
4449;BME280;2237;51.870;6.160;2022-08-04T16:16:47;101152.75;;;36.20;27.40
4449;BME280;2237;51.870;6.160;2022-08-04T16:19:31;101164.28;;;35.93;28.09
4449;BME280;2237;51.870;6.160;2022-08-04T16:22:02;101161.28;;;35.38;29.17
4449;BME280;2237;51.870;6.160;2022-08-04T16:24:36;101152.59;;;35.57;29.62
4449;BME280;2237;51.870;6.160;2022-08-04T16:27:07;101150.88;;;35.85;28.75
4449;BME280;2237;51.870;6.160;2022-08-04T16:34:31;101157.19;;;35.56;29.20
4449;BME280;2237;51.870;6.160;2022-08-04T16:37:18;101152.78;;;35.41;29.88
4449;BME280;2237;51.870;6.160;2022-08-04T16:39:46;101154.63;;;35.55;28.88
4449;BME280;2237;51.870;6.160;2022-08-04T16:45:08;101148.50;;;35.61;29.61
4449;BME280;2237;51.870;6.160;2022-08-04T16:52:46;101148.69;;;35.95;29.03
4449;BME280;2237;51.870;6.160;2022-08-04T16:55:20;101147.84;;;36.09;28.37
4449;BME280;2237;51.870;6.160;2022-08-04T16:57:49;101144.81;;;35.68;28.47
4449;BME280;2237;51.870;6.160;2022-08-04T17:00:17;101138.75;;;35.23;29.07
4449;BME280;2237;51.870;6.160;2022-08-04T17:02:52;101143.59;;;35.12;30.17
4449;BME280;2237;51.870;6.160;2022-08-04T17:05:23;101135.44;;;34.98;31.09
4449;BME280;2237;51.870;6.160;2022-08-04T17:08:06;101137.31;;;34.97;31.55
4449;BME280;2237;51.870;6.160;2022-08-04T17:10:53;101139.34;;;34.95;30.74
4449;BME280;2237;51.870;6.160;2022-08-04T17:13:28;101149.09;;;34.67;30.47
4449;BME280;2237;51.870;6.160;2022-08-04T17:16:16;101157.16;;;34.52;30.03
4449;BME280;2237;51.870;6.160;2022-08-04T17:18:46;101148.50;;;34.34;30.14
4449;BME280;2237;51.870;6.160;2022-08-04T17:21:17;101159.22;;;34.20;30.27
4449;BME280;2237;51.870;6.160;2022-08-04T17:23:53;101150.06;;;33.98;30.79
4449;BME280;2237;51.870;6.160;2022-08-04T17:26:40;101157.19;;;33.91;30.76
4449;BME280;2237;51.870;6.160;2022-08-04T17:29:21;101155.59;;;33.19;31.21
4449;BME280;2237;51.870;6.160;2022-08-04T17:32:16;101151.38;;;33.00;32.29
4449;BME280;2237;51.870;6.160;2022-08-04T17:34:51;101152.22;;;32.92;32.13
4449;BME280;2237;51.870;6.160;2022-08-04T17:37:20;101153.94;;;32.93;32.03
4449;BME280;2237;51.870;6.160;2022-08-04T17:40:14;101147.31;;;33.04;31.55
4449;BME280;2237;51.870;6.160;2022-08-04T17:42:48;101158.59;;;33.24;31.74